Terminal Aerodrome Forecast
Issued by NWS Topeka, KS

Home | Current Version | Previous Version | Graphics & Text | Print | Product List | Glossary On
Versions: 1 2 3 4 5 6 7 8 9 10 11 12 13
000
FTUS43 KTOP 172320
TAFTOP
TAF
KTOP 172320Z 1800/1824 10013KT P6SM FEW250
     FM180300 12013KT P6SM SCT150 WS020/18045KT
     FM180900 29015G22KT P6SM SCT025
     FM181300 30018G26KT P6SM BKN025
     FM181600 30021G30KT P6SM BKN040=

USA.gov is the U.S. government's official web portal to all federal, state and local government web resources and services.